CEC 2014 Haywood NORAM/Buff-Qualifier & Prologue | Zone4.ca



CEC 2014 Haywood NORAM/Buff-Qualifier & Prologue

Date: Jan 31, 2014
Official  Results
Location/Lieu: Nakkertok South Nordic Centre
Host Clubs Hôtes: Gatineau-Ottawa XC Clubs

Jury
TD / DT:  Shawn Sinclair 
ATD / DTA  Renée Thibeault 
Dir. Comp. Chief  Jim McCarthy 
CCC Dir. SFC  Dave Dyer 
Heure/Time: 10:00 am
Wind/Vent:  10km/hr Gusty Wind/Vent Dir: SW
Air Temp: -3 Snow/Neige T: -4
Weather/Météo: Sun/Cloud Snow/Neige: Groomed Powder

Open (F) 1.4 km. Free  Sprint Qualification  
PL Bib Name YOB Cat Rnk Div CCC# SFQ# FIS# Club Team Time Diff
1 91 Andrea Dupont 1980 Open/Senior (F) 1/26 AB 5573   3105105 Rocky Mountain Racers RMR 0:03:44.63  
2 90 Alysson Marshall 1988 Open/Senior (F) 2/26 BC 13482   3105084 Larch Hills Nordic AWCA-NST 0:03:45.63 +1.00
3 94 Jennifer Jackson 1995 Open/Senior (F) 3/26 ON 21582   3105217 Team Hardwood NDC TBay 0:03:47.15 +2.52
4 92 Erin Tribe 1989 Open/Senior (F) 4/26 ON 13652   3105145 Team Hardwood NDC TBay 0:03:50.04 +5.41
5 97 Alannah Maclean 1993 Open/Senior (F) 5/26 ON 19646   3105169 Walden Nordic NDC TBay 0:03:51.03 +6.40
6 95 Zoe Roy 1987 Open/Senior (F) 6/26 AB 13631   3105090 Foothills Nordic Team NINJA! 0:03:52.58 +7.95
7 93 Marlis Kromm 1990 Open/Senior (F) 7/26 AB 14211   3105093 Foothills Nordic AWCA 0:03:56.00 +11.37
8 99 Kajsa Heyes 1992 Open/Senior (F) 8/26 BC 14562   3105181 Hollyburn XC BCST/Nippissing U 0:03:57.22 +12.59
9 96 Maja Zimmermann 1990 Open/Senior (F) 9/26 AB 14589   3105176 Rocky Mountain Racers RMR 0:03:57.99 +13.36
10 102 Kendra Murray 1993 Open/Senior (F) 10/26 YT 22984   3105219 Whitehorse XC Carleton U 0:04:02.01 +17.38
11 101 Lauren Brookes 1991 Open/Senior (F) 11/26 AB 25727   3105229 Rocky Mountain Racers   0:04:03.59 +18.96
12 112 Alexandra Slobodian 1995 Open/Junior A (F) 1/22 ON 23717   3105225 Nakkertok OST/Carleton U 0:04:04.02 +19.39
13 98 Ember Large 1995 Open/Junior A (F) 2/22 AB 23731   3105185 Edmonton Nordic AST 0:04:04.86 +20.23
14 106 Emilie Stewart-Jones 1995 Open/Junior A (F) 3/22 QC 23773 3497 3105198 Nakkertok QCST 0:04:05.65 +21.02
15 107 Sadie White 1996 Open/Junior A (F) 4/22 ON 23767   3105182 Big Thunder Nordic OST 0:04:06.56 +21.93
16 100 Gabrielle Lemire 1994 Open/Junior A (F) 5/22 QC 21444 15098 3105177 C.N. Skibec QCST/Limoilou 0:04:06.85 +22.22
17 108 Shelby Dickey 1994 Open/Junior A (F) 6/22 ON 21473     Highland Trailblazers OST/Nippissing U 0:04:07.12 +22.49
18 111 Ingrid Hagberg 1991 Open/Senior (F) 12/26 ON 18900   3105164 XC Ottawa XC Ottawa 0:04:08.71 +24.08
19 109 Mia Serratore 1996 Open/Junior A (F) 7/22 ON 23769   3105174 Big Thunder Nordic OST 0:04:10.60 +25.97
20 104 Sheila Kealey 1964 Open/Senior (F) 13/26 ON 3485   3105048 XC Ottawa XC Ottawa 0:04:12.23 +27.60
21 113 Jessica Demers 1995 Open/Junior A (F) 8/22 ON 14607     Porcupine Ski Runners OST/Nippissing U 0:04:12.32 +27.69
22 103 Andrée-Anne Théberge 1995 Open/Junior A (F) 9/22 QC 23610 13088 3105205 C.N. Skibec   0:04:14.60 +29.97
23 116 Moira Haggarty 1993 Open/Senior (F) 14/26 ON 14538     Big Thunder Nordic Lakehead U 0:04:15.72 +31.09
24 117 Holly Brown 1995 Open/Junior A (F) 10/22 ON 28645   3105227 Nakkertok   0:04:16.83 +32.20
25 118 Holly Jones 1992 Open/Senior (F) 15/26 ON 27359     Arrowhead Nordic XC Ottawa/Carleton U 0:04:17.50 +32.87
26 110 Candace Ball 1990 Open/Senior (F) 16/26 ON 18902     Walden Nordic Laurentian U 0:04:18.18 +33.55
27 125 Zoë Williams 1997 Open/Junior A (F) 11/22 QC 27366 16615   Nakkertok   0:04:19.46 +34.83
28 115 Bryana van Leeuwen 1994 Open/Junior A (F) 12/22 ON 25586     Big Thunder Nordic OST 0:04:21.62 +36.99
29 114 Liza Rozina 1989 Open/Senior (F) 17/26 ON 28163     XC Ottawa Carleton U 0:04:22.19 +37.56
30 132 Katie Prufer 1992 Open/Senior (F) 18/26 ON 23726     Mono Nordic Queen's U 0:04:25.15 +40.52
31 131 Jessica Metuzals 1991 Open/Senior (F) 19/26 ON 31837     Nakkertok Queen's U 0:04:25.44 +40.81
32 119 Isabelle Maclean 1995 Open/Junior A (F) 13/22 ON 20510     Walden Nordic Carleton U 0:04:25.99 +41.36
33 122 Betsy Mawdsley 1988 Open/Senior (F) 20/26 AB 27082     Rocky Mountain Racers RMR 0:04:26.38 +41.75
34 124 Rosalie Vézina 1995 Open/Junior A (F) 14/22 QC 23597 2046   C.N. Skibec   0:04:32.20 +47.57
35 121 Elise Huet 1995 Open/Junior A (F) 15/22 ON 25790     Highland Trailblazers Guelph U 0:04:33.53 +48.90
36 130 Maya Boivin 1995 Open/Junior A (F) 16/22 MB 26905     Kenora Nordic MBST 0:04:33.77 +49.14
37 136 Sarah Murray 1988 Open/Senior (F) 21/26 ON       Whitehorse XC Carleton U 0:04:35.67 +51.04
38 127 Lynsey Bialkowski 1991 Open/Senior (F) 22/26 ON 23603     North Bay Nordic Nipissing U 0:04:38.03 +53.40
39 120 Kaitlyn McMahon 1990 Open/Senior (F) 23/26 QC 19587   3105142 XC Ottawa XC Ottawa 0:04:38.79 +54.16
40 137 Anna Geiger-Whitlock 1987 Open/Senior (F) 24/26 ON       XC Ottawa   0:04:43.29 +58.66
41 126 Adrienne Hynes 1995 Open/Junior A (F) 17/22 YT 24509     Whitehorse XC Carleton U 0:04:45.04 +1:00.41
42 123 Ilona Gyapay 1992 Open/Senior (F) 25/26 AB 21565     Camrose RMR 0:04:45.10 +1:00.47
43 128 Alexe Tremblay 1994 Open/Junior A (F) 18/22 QC 21032 876   C.N. Skibec   0:04:49.62 +1:04.99
44 133 Lauren Aarts 1995 Open/Junior A (F) 19/22 ON       North Bay Nordic Nipissing U 0:04:53.79 +1:09.16
45 135 Jennifer Hull 1994 Open/Junior A (F) 20/22 ON       Laurentian Nordic Laurentian 0:04:58.13 +1:13.50
46 134 Gemma Dingwall 1994 Open/Junior A (F) 21/22 ON       Carleton U Carleton U 0:05:00.88 +1:16.25
47 129 Madeleine Nolan 1995 Open/Junior A (F) 22/22 ON 30890     Laurentian Nordic Laurentian U 0:05:08.83 +1:24.20
48 138 Heather Smith 1989 Open/Senior (F) 26/26 ON       Laurentian Nordic Laurentian U 0:05:53.87 +2:09.24
DNS 105 Annah Hanthorn 1995 Open/Junior A (F) * YT 14632   3105228 Whitehorse XC YTST *** ***


Results are posted through an automated system by licenced clubs. For inquires about result corrections please contact the race organizer.

Copyright 2020 - Zone4 Systems zone4.ca       Privacy Policy     Delivery/Refund Policy     Terms of Service    Contact Zone4